sensor_id;sensor_type;location;lat;lon;timestamp;pressure;altitude;pressure_sealevel;temperature
67822;BMP180;54434;50.096;20.082;2023-07-31T00:02:15;98460.20;;;17.70
67822;BMP180;54434;50.096;20.082;2023-07-31T00:04:52;98459.20;;;17.60
67822;BMP180;54434;50.096;20.082;2023-07-31T00:07:28;98454.00;;;17.60
67822;BMP180;54434;50.096;20.082;2023-07-31T00:10:06;98455.20;;;17.60
67822;BMP180;54434;50.096;20.082;2023-07-31T00:12:44;98457.60;;;17.80
67822;BMP180;54434;50.096;20.082;2023-07-31T00:15:21;98458.80;;;17.80
67822;BMP180;54434;50.096;20.082;2023-07-31T00:17:58;98458.80;;;17.80
67822;BMP180;54434;50.096;20.082;2023-07-31T00:20:36;98461.20;;;17.80
67822;BMP180;54434;50.096;20.082;2023-07-31T00:23:12;98457.80;;;17.80
67822;BMP180;54434;50.096;20.082;2023-07-31T00:25:49;98462.80;;;17.80
67822;BMP180;54434;50.096;20.082;2023-07-31T00:28:25;98461.60;;;17.70
67822;BMP180;54434;50.096;20.082;2023-07-31T00:31:02;98460.40;;;17.74
67822;BMP180;54434;50.096;20.082;2023-07-31T00:33:39;98459.00;;;17.96
67822;BMP180;54434;50.096;20.082;2023-07-31T00:36:15;98458.60;;;18.10
67822;BMP180;54434;50.096;20.082;2023-07-31T00:38:52;98457.00;;;18.10
67822;BMP180;54434;50.096;20.082;2023-07-31T00:41:29;98457.00;;;18.20
67822;BMP180;54434;50.096;20.082;2023-07-31T00:44:05;98462.00;;;18.20
67822;BMP180;54434;50.096;20.082;2023-07-31T00:46:42;98457.60;;;18.30
67822;BMP180;54434;50.096;20.082;2023-07-31T00:49:19;98461.20;;;18.30
67822;BMP180;54434;50.096;20.082;2023-07-31T00:51:57;98462.40;;;18.30
67822;BMP180;54434;50.096;20.082;2023-07-31T00:54:33;98460.60;;;18.30
67822;BMP180;54434;50.096;20.082;2023-07-31T00:57:11;98458.20;;;18.20
67822;BMP180;54434;50.096;20.082;2023-07-31T00:59:47;98456.80;;;18.20
67822;BMP180;54434;50.096;20.082;2023-07-31T01:02:23;98455.20;;;18.20
67822;BMP180;54434;50.096;20.082;2023-07-31T01:05:00;98462.20;;;18.10
67822;BMP180;54434;50.096;20.082;2023-07-31T01:07:49;98461.40;;;18.20
67822;BMP180;54434;50.096;20.082;2023-07-31T01:10:33;98458.40;;;18.20
67822;BMP180;54434;50.096;20.082;2023-07-31T01:13:11;98456.40;;;18.20
67822;BMP180;54434;50.096;20.082;2023-07-31T01:15:48;98455.40;;;18.18
67822;BMP180;54434;50.096;20.082;2023-07-31T01:18:24;98457.00;;;18.20
67822;BMP180;54434;50.096;20.082;2023-07-31T01:21:21;98457.00;;;18.20
67822;BMP180;54434;50.096;20.082;2023-07-31T01:24:32;98459.00;;;18.16
67822;BMP180;54434;50.096;20.082;2023-07-31T01:27:17;98458.00;;;18.06
67822;BMP180;54434;50.096;20.082;2023-07-31T01:30:08;98457.40;;;18.06
67822;BMP180;54434;50.096;20.082;2023-07-31T01:32:49;98455.80;;;18.10
67822;BMP180;54434;50.096;20.082;2023-07-31T01:35:27;98464.20;;;18.10
67822;BMP180;54434;50.096;20.082;2023-07-31T01:38:04;98464.60;;;18.02
67822;BMP180;54434;50.096;20.082;2023-07-31T01:40:44;98466.20;;;18.00
67822;BMP180;54434;50.096;20.082;2023-07-31T01:43:20;98468.20;;;18.00
67822;BMP180;54434;50.096;20.082;2023-07-31T01:45:58;98465.20;;;17.92
67822;BMP180;54434;50.096;20.082;2023-07-31T01:48:34;98472.00;;;18.00
67822;BMP180;54434;50.096;20.082;2023-07-31T01:51:11;98466.80;;;17.90
67822;BMP180;54434;50.096;20.082;2023-07-31T01:53:48;98467.80;;;17.90
67822;BMP180;54434;50.096;20.082;2023-07-31T01:56:24;98467.80;;;17.90
67822;BMP180;54434;50.096;20.082;2023-07-31T01:59:00;98476.60;;;18.00
67822;BMP180;54434;50.096;20.082;2023-07-31T02:01:37;98476.60;;;18.00
67822;BMP180;54434;50.096;20.082;2023-07-31T02:04:13;98474.20;;;18.00
67822;BMP180;54434;50.096;20.082;2023-07-31T02:06:50;98475.20;;;18.10
67822;BMP180;54434;50.096;20.082;2023-07-31T02:09:27;98471.80;;;18.10
67822;BMP180;54434;50.096;20.082;2023-07-31T02:12:04;98472.80;;;18.20
67822;BMP180;54434;50.096;20.082;2023-07-31T02:14:43;98472.80;;;18.20
67822;BMP180;54434;50.096;20.082;2023-07-31T02:17:20;98470.20;;;18.20
67822;BMP180;54434;50.096;20.082;2023-07-31T02:19:57;98476.20;;;18.30
67822;BMP180;54434;50.096;20.082;2023-07-31T02:22:33;98483.00;;;18.32
67822;BMP180;54434;50.096;20.082;2023-07-31T02:25:11;98488.80;;;18.44
67822;BMP180;54434;50.096;20.082;2023-07-31T02:27:47;98489.40;;;18.48
67822;BMP180;54434;50.096;20.082;2023-07-31T02:30:24;98496.60;;;18.50
67822;BMP180;54434;50.096;20.082;2023-07-31T02:33:00;98506.60;;;18.50
67822;BMP180;54434;50.096;20.082;2023-07-31T02:35:37;98512.80;;;18.50
67822;BMP180;54434;50.096;20.082;2023-07-31T02:38:13;98515.80;;;18.40
67822;BMP180;54434;50.096;20.082;2023-07-31T02:40:49;98516.80;;;18.30
67822;BMP180;54434;50.096;20.082;2023-07-31T02:43:26;98523.60;;;18.32
67822;BMP180;54434;50.096;20.082;2023-07-31T02:46:03;98518.20;;;18.40
67822;BMP180;54434;50.096;20.082;2023-07-31T02:48:39;98520.00;;;18.40
67822;BMP180;54434;50.096;20.082;2023-07-31T02:51:16;98521.40;;;18.40
67822;BMP180;54434;50.096;20.082;2023-07-31T02:53:52;98527.80;;;18.42
67822;BMP180;54434;50.096;20.082;2023-07-31T02:56:28;98542.00;;;18.50
67822;BMP180;54434;50.096;20.082;2023-07-31T02:59:05;98544.60;;;18.42
67822;BMP180;54434;50.096;20.082;2023-07-31T03:01:41;98544.60;;;18.40
67822;BMP180;54434;50.096;20.082;2023-07-31T03:04:17;98545.80;;;18.42
67822;BMP180;54434;50.096;20.082;2023-07-31T03:06:54;98544.00;;;18.50
67822;BMP180;54434;50.096;20.082;2023-07-31T03:09:30;98550.60;;;18.40
67822;BMP180;54434;50.096;20.082;2023-07-31T03:12:08;98550.80;;;18.40
67822;BMP180;54434;50.096;20.082;2023-07-31T03:14:45;98553.60;;;18.30
67822;BMP180;54434;50.096;20.082;2023-07-31T03:17:21;98552.00;;;18.44
67822;BMP180;54434;50.096;20.082;2023-07-31T03:19:58;98554.20;;;18.42
67822;BMP180;54434;50.096;20.082;2023-07-31T03:22:34;98554.40;;;18.50
67822;BMP180;54434;50.096;20.082;2023-07-31T03:25:12;98553.80;;;18.40
67822;BMP180;54434;50.096;20.082;2023-07-31T03:27:49;98554.20;;;18.40
67822;BMP180;54434;50.096;20.082;2023-07-31T03:30:25;98550.00;;;18.40
67822;BMP180;54434;50.096;20.082;2023-07-31T03:33:02;98550.20;;;18.40
67822;BMP180;54434;50.096;20.082;2023-07-31T03:35:38;98554.20;;;18.30
67822;BMP180;54434;50.096;20.082;2023-07-31T03:38:14;98557.60;;;18.32
67822;BMP180;54434;50.096;20.082;2023-07-31T03:40:51;98555.40;;;18.40
67822;BMP180;54434;50.096;20.082;2023-07-31T03:43:27;98552.20;;;18.38
67822;BMP180;54434;50.096;20.082;2023-07-31T03:46:04;98551.80;;;18.40
67822;BMP180;54434;50.096;20.082;2023-07-31T03:48:40;98551.60;;;18.40
67822;BMP180;54434;50.096;20.082;2023-07-31T03:51:17;98553.80;;;18.38
67822;BMP180;54434;50.096;20.082;2023-07-31T03:53:54;98550.60;;;18.30
67822;BMP180;54434;50.096;20.082;2023-07-31T03:56:30;98557.80;;;18.40
67822;BMP180;54434;50.096;20.082;2023-07-31T03:59:10;98557.80;;;18.30
67822;BMP180;54434;50.096;20.082;2023-07-31T04:01:46;98557.00;;;18.34
67822;BMP180;54434;50.096;20.082;2023-07-31T04:04:22;98558.60;;;18.40
67822;BMP180;54434;50.096;20.082;2023-07-31T04:06:59;98558.60;;;18.50
67822;BMP180;54434;50.096;20.082;2023-07-31T04:09:35;98557.00;;;18.76
67822;BMP180;54434;50.096;20.082;2023-07-31T04:12:12;98557.40;;;19.06
67822;BMP180;54434;50.096;20.082;2023-07-31T04:14:49;98554.80;;;19.32
67822;BMP180;54434;50.096;20.082;2023-07-31T04:17:25;98551.00;;;20.08
67822;BMP180;54434;50.096;20.082;2023-07-31T04:20:02;98558.20;;;20.70
67822;BMP180;54434;50.096;20.082;2023-07-31T04:22:38;98556.20;;;20.70
67822;BMP180;54434;50.096;20.082;2023-07-31T04:25:14;98561.60;;;20.80
67822;BMP180;54434;50.096;20.082;2023-07-31T04:27:51;98563.80;;;21.10
67822;BMP180;54434;50.096;20.082;2023-07-31T04:30:27;98559.00;;;21.20
67822;BMP180;54434;50.096;20.082;2023-07-31T04:33:04;98553.20;;;21.44
67822;BMP180;54434;50.096;20.082;2023-07-31T04:35:40;98555.40;;;22.16
67822;BMP180;54434;50.096;20.082;2023-07-31T04:38:16;98558.80;;;22.20
67822;BMP180;54434;50.096;20.082;2023-07-31T04:40:53;98563.20;;;22.10
67822;BMP180;54434;50.096;20.082;2023-07-31T04:43:29;98569.20;;;22.06
67822;BMP180;54434;50.096;20.082;2023-07-31T04:46:05;98573.40;;;21.90
67822;BMP180;54434;50.096;20.082;2023-07-31T04:48:42;98571.80;;;22.02
67822;BMP180;54434;50.096;20.082;2023-07-31T04:51:18;98577.20;;;22.10
67822;BMP180;54434;50.096;20.082;2023-07-31T04:53:56;98574.20;;;22.10
67822;BMP180;54434;50.096;20.082;2023-07-31T04:56:32;98582.20;;;22.40
67822;BMP180;54434;50.096;20.082;2023-07-31T04:59:09;98590.00;;;22.50
67822;BMP180;54434;50.096;20.082;2023-07-31T05:01:45;98596.60;;;22.40
67822;BMP180;54434;50.096;20.082;2023-07-31T05:04:21;98602.20;;;22.32
67822;BMP180;54434;50.096;20.082;2023-07-31T05:06:58;98607.00;;;22.30
67822;BMP180;54434;50.096;20.082;2023-07-31T05:09:34;98613.20;;;22.40
67822;BMP180;54434;50.096;20.082;2023-07-31T05:12:12;98614.60;;;22.70
67822;BMP180;54434;50.096;20.082;2023-07-31T05:14:48;98612.80;;;22.90
67822;BMP180;54434;50.096;20.082;2023-07-31T05:17:24;98619.00;;;23.00
67822;BMP180;54434;50.096;20.082;2023-07-31T05:20:01;98621.20;;;23.10
67822;BMP180;54434;50.096;20.082;2023-07-31T05:22:38;98620.00;;;23.20
67822;BMP180;54434;50.096;20.082;2023-07-31T05:25:14;98624.40;;;23.10
67822;BMP180;54434;50.096;20.082;2023-07-31T05:27:51;98627.40;;;23.00
67822;BMP180;54434;50.096;20.082;2023-07-31T05:30:29;98630.20;;;22.80
67822;BMP180;54434;50.096;20.082;2023-07-31T05:33:05;98633.40;;;22.50
67822;BMP180;54434;50.096;20.082;2023-07-31T05:35:42;98632.80;;;22.22
67822;BMP180;54434;50.096;20.082;2023-07-31T05:38:20;98636.60;;;21.98
67822;BMP180;54434;50.096;20.082;2023-07-31T05:40:56;98636.80;;;21.80
67822;BMP180;54434;50.096;20.082;2023-07-31T05:43:33;98635.00;;;21.60
67822;BMP180;54434;50.096;20.082;2023-07-31T05:46:09;98638.60;;;21.50
67822;BMP180;54434;50.096;20.082;2023-07-31T05:48:47;98641.80;;;21.30
67822;BMP180;54434;50.096;20.082;2023-07-31T05:51:23;98642.20;;;21.28
67822;BMP180;54434;50.096;20.082;2023-07-31T05:53:59;98639.60;;;21.30
67822;BMP180;54434;50.096;20.082;2023-07-31T05:56:35;98636.20;;;21.20
67822;BMP180;54434;50.096;20.082;2023-07-31T05:59:14;98639.20;;;21.20
67822;BMP180;54434;50.096;20.082;2023-07-31T06:01:50;98640.80;;;21.30
67822;BMP180;54434;50.096;20.082;2023-07-31T06:04:27;98641.00;;;21.46
67822;BMP180;54434;50.096;20.082;2023-07-31T06:07:05;98641.40;;;21.76
67822;BMP180;54434;50.096;20.082;2023-07-31T06:09:41;98647.40;;;22.00
67822;BMP180;54434;50.096;20.082;2023-07-31T06:12:17;98641.80;;;22.20
67822;BMP180;54434;50.096;20.082;2023-07-31T06:14:55;98647.20;;;22.50
67822;BMP180;54434;50.096;20.082;2023-07-31T06:17:31;98647.60;;;22.72
67822;BMP180;54434;50.096;20.082;2023-07-31T06:20:10;98643.60;;;22.94
67822;BMP180;54434;50.096;20.082;2023-07-31T06:22:47;98642.20;;;23.34
67822;BMP180;54434;50.096;20.082;2023-07-31T06:25:24;98642.60;;;24.04
67822;BMP180;54434;50.096;20.082;2023-07-31T06:28:00;98644.40;;;24.30
67822;BMP180;54434;50.096;20.082;2023-07-31T06:30:36;98643.80;;;24.30
67822;BMP180;54434;50.096;20.082;2023-07-31T06:33:13;98646.00;;;24.44
67822;BMP180;54434;50.096;20.082;2023-07-31T06:35:49;98649.00;;;24.72
67822;BMP180;54434;50.096;20.082;2023-07-31T06:38:29;98649.60;;;24.84
67822;BMP180;54434;50.096;20.082;2023-07-31T06:41:05;98656.60;;;24.78
67822;BMP180;54434;50.096;20.082;2023-07-31T06:43:42;98652.40;;;24.60
67822;BMP180;54434;50.096;20.082;2023-07-31T06:46:18;98652.60;;;24.24
67822;BMP180;54434;50.096;20.082;2023-07-31T06:48:54;98649.80;;;23.92
67822;BMP180;54434;50.096;20.082;2023-07-31T06:51:31;98642.60;;;23.66
67822;BMP180;54434;50.096;20.082;2023-07-31T06:54:09;98645.40;;;23.50
67822;BMP180;54434;50.096;20.082;2023-07-31T06:56:45;98640.00;;;23.34
67822;BMP180;54434;50.096;20.082;2023-07-31T06:59:21;98644.60;;;23.20
67822;BMP180;54434;50.096;20.082;2023-07-31T07:01:58;98653.20;;;23.16
67822;BMP180;54434;50.096;20.082;2023-07-31T07:04:34;98649.60;;;23.00
67822;BMP180;54434;50.096;20.082;2023-07-31T07:07:12;98649.80;;;23.00
67822;BMP180;54434;50.096;20.082;2023-07-31T07:09:49;98648.40;;;22.86
67822;BMP180;54434;50.096;20.082;2023-07-31T07:12:25;98648.00;;;22.90
67822;BMP180;54434;50.096;20.082;2023-07-31T07:15:02;98646.40;;;22.90
67822;BMP180;54434;50.096;20.082;2023-07-31T07:17:39;98646.20;;;22.98
67822;BMP180;54434;50.096;20.082;2023-07-31T07:20:16;98649.00;;;23.10
67822;BMP180;54434;50.096;20.082;2023-07-31T07:22:54;98650.40;;;23.20
67822;BMP180;54434;50.096;20.082;2023-07-31T07:25:31;98649.80;;;23.20
67822;BMP180;54434;50.096;20.082;2023-07-31T07:28:07;98648.20;;;23.20
67822;BMP180;54434;50.096;20.082;2023-07-31T07:30:44;98646.40;;;23.20
67822;BMP180;54434;50.096;20.082;2023-07-31T07:33:20;98642.80;;;23.10
67822;BMP180;54434;50.096;20.082;2023-07-31T07:35:57;98644.40;;;23.00
67822;BMP180;54434;50.096;20.082;2023-07-31T07:38:35;98644.00;;;23.00
67822;BMP180;54434;50.096;20.082;2023-07-31T07:41:14;98648.00;;;23.00
67822;BMP180;54434;50.096;20.082;2023-07-31T07:43:50;98646.00;;;23.10
67822;BMP180;54434;50.096;20.082;2023-07-31T07:46:27;98645.80;;;23.20
67822;BMP180;54434;50.096;20.082;2023-07-31T07:49:04;98646.40;;;23.30
67822;BMP180;54434;50.096;20.082;2023-07-31T07:51:40;98648.40;;;23.28
67822;BMP180;54434;50.096;20.082;2023-07-31T07:54:17;98647.20;;;23.30
67822;BMP180;54434;50.096;20.082;2023-07-31T07:56:55;98649.20;;;23.38
67822;BMP180;54434;50.096;20.082;2023-07-31T07:59:31;98649.40;;;23.40
67822;BMP180;54434;50.096;20.082;2023-07-31T08:02:08;98650.60;;;23.40
67822;BMP180;54434;50.096;20.082;2023-07-31T08:04:45;98651.20;;;23.48
67822;BMP180;54434;50.096;20.082;2023-07-31T08:07:21;98651.40;;;23.56
67822;BMP180;54434;50.096;20.082;2023-07-31T08:09:57;98658.20;;;23.90
67822;BMP180;54434;50.096;20.082;2023-07-31T08:12:34;98659.20;;;24.00
67822;BMP180;54434;50.096;20.082;2023-07-31T08:15:12;98656.60;;;24.10
67822;BMP180;54434;50.096;20.082;2023-07-31T08:17:48;98657.20;;;24.10
67822;BMP180;54434;50.096;20.082;2023-07-31T08:20:25;98659.80;;;24.00
67822;BMP180;54434;50.096;20.082;2023-07-31T08:23:02;98659.60;;;23.82
67822;BMP180;54434;50.096;20.082;2023-07-31T08:25:40;98658.40;;;23.68
67822;BMP180;54434;50.096;20.082;2023-07-31T08:28:17;98659.80;;;23.60
67822;BMP180;54434;50.096;20.082;2023-07-31T08:30:54;98662.40;;;23.50
67822;BMP180;54434;50.096;20.082;2023-07-31T08:33:30;98661.80;;;23.50
67822;BMP180;54434;50.096;20.082;2023-07-31T08:36:07;98663.20;;;23.40
67822;BMP180;54434;50.096;20.082;2023-07-31T08:38:44;98662.00;;;23.30
67822;BMP180;54434;50.096;20.082;2023-07-31T08:41:22;98664.20;;;23.12
67822;BMP180;54434;50.096;20.082;2023-07-31T08:43:59;98666.00;;;23.04
67822;BMP180;54434;50.096;20.082;2023-07-31T08:46:36;98664.40;;;23.00
67822;BMP180;54434;50.096;20.082;2023-07-31T08:49:14;98664.00;;;23.00
67822;BMP180;54434;50.096;20.082;2023-07-31T08:51:54;98664.80;;;23.00
67822;BMP180;54434;50.096;20.082;2023-07-31T08:54:33;98664.80;;;23.00
67822;BMP180;54434;50.096;20.082;2023-07-31T08:57:12;98663.60;;;23.00
67822;BMP180;54434;50.096;20.082;2023-07-31T08:59:50;98659.60;;;22.90
67822;BMP180;54434;50.096;20.082;2023-07-31T09:02:44;98663.40;;;22.90
67822;BMP180;54434;50.096;20.082;2023-07-31T09:05:23;98660.80;;;22.84
67822;BMP180;54434;50.096;20.082;2023-07-31T09:08:01;98661.80;;;23.00
67822;BMP180;54434;50.096;20.082;2023-07-31T09:10:44;98666.20;;;23.10
67822;BMP180;54434;50.096;20.082;2023-07-31T09:13:22;98665.60;;;23.20
67822;BMP180;54434;50.096;20.082;2023-07-31T09:15:58;98664.80;;;23.30
67822;BMP180;54434;50.096;20.082;2023-07-31T09:18:54;98666.60;;;23.40
67822;BMP180;54434;50.096;20.082;2023-07-31T09:21:32;98661.80;;;23.60
67822;BMP180;54434;50.096;20.082;2023-07-31T09:24:09;98661.80;;;23.80
67822;BMP180;54434;50.096;20.082;2023-07-31T09:26:45;98661.00;;;24.00
67822;BMP180;54434;50.096;20.082;2023-07-31T09:29:24;98658.40;;;24.00
67822;BMP180;54434;50.096;20.082;2023-07-31T09:32:02;98662.00;;;23.94
67822;BMP180;54434;50.096;20.082;2023-07-31T09:34:42;98660.80;;;23.90
67822;BMP180;54434;50.096;20.082;2023-07-31T09:37:19;98663.60;;;23.90
67822;BMP180;54434;50.096;20.082;2023-07-31T09:39:55;98662.80;;;23.80
67822;BMP180;54434;50.096;20.082;2023-07-31T09:42:35;98658.80;;;23.80
67822;BMP180;54434;50.096;20.082;2023-07-31T09:45:17;98658.20;;;23.90
67822;BMP180;54434;50.096;20.082;2023-07-31T09:48:02;98654.40;;;24.02
67822;BMP180;54434;50.096;20.082;2023-07-31T09:50:43;98656.40;;;24.10
67822;BMP180;54434;50.096;20.082;2023-07-31T09:53:20;98654.40;;;24.20
67822;BMP180;54434;50.096;20.082;2023-07-31T09:56:05;98649.80;;;24.28
67822;BMP180;54434;50.096;20.082;2023-07-31T09:58:42;98642.40;;;24.30
67822;BMP180;54434;50.096;20.082;2023-07-31T10:01:18;98639.60;;;24.34
67822;BMP180;54434;50.096;20.082;2023-07-31T10:03:55;98641.80;;;24.50
67822;BMP180;54434;50.096;20.082;2023-07-31T10:06:35;98639.60;;;24.60
67822;BMP180;54434;50.096;20.082;2023-07-31T10:09:16;98635.40;;;24.60
67822;BMP180;54434;50.096;20.082;2023-07-31T10:12:09;98636.00;;;24.52
67822;BMP180;54434;50.096;20.082;2023-07-31T10:14:46;98633.00;;;24.70
67822;BMP180;54434;50.096;20.082;2023-07-31T10:17:24;98626.80;;;24.90
67822;BMP180;54434;50.096;20.082;2023-07-31T10:20:03;98622.20;;;25.00
67822;BMP180;54434;50.096;20.082;2023-07-31T10:22:42;98616.20;;;25.00
67822;BMP180;54434;50.096;20.082;2023-07-31T10:25:19;98614.80;;;25.10
67822;BMP180;54434;50.096;20.082;2023-07-31T10:27:57;98619.40;;;25.20
67822;BMP180;54434;50.096;20.082;2023-07-31T10:30:37;98614.60;;;25.20
67822;BMP180;54434;50.096;20.082;2023-07-31T10:33:14;98614.80;;;25.20
67822;BMP180;54434;50.096;20.082;2023-07-31T10:35:51;98608.60;;;25.20
67822;BMP180;54434;50.096;20.082;2023-07-31T10:38:50;98614.00;;;25.10
67822;BMP180;54434;50.096;20.082;2023-07-31T10:41:32;98603.00;;;25.20
67822;BMP180;54434;50.096;20.082;2023-07-31T10:44:10;98599.40;;;25.30
67822;BMP180;54434;50.096;20.082;2023-07-31T10:46:49;98595.80;;;25.40
67822;BMP180;54434;50.096;20.082;2023-07-31T10:49:33;98595.20;;;25.40
67822;BMP180;54434;50.096;20.082;2023-07-31T10:52:14;98594.00;;;25.34
67822;BMP180;54434;50.096;20.082;2023-07-31T10:55:29;98591.20;;;25.12
67822;BMP180;54434;50.096;20.082;2023-07-31T10:58:14;98587.80;;;25.08
67822;BMP180;54434;50.096;20.082;2023-07-31T11:00:59;98587.00;;;25.10
67822;BMP180;54434;50.096;20.082;2023-07-31T11:03:50;98582.60;;;25.20
67822;BMP180;54434;50.096;20.082;2023-07-31T11:06:32;98584.60;;;25.22
67822;BMP180;54434;50.096;20.082;2023-07-31T11:09:14;98583.80;;;25.10
67822;BMP180;54434;50.096;20.082;2023-07-31T11:11:51;98582.40;;;24.90
67822;BMP180;54434;50.096;20.082;2023-07-31T11:14:27;98581.00;;;24.86
67822;BMP180;54434;50.096;20.082;2023-07-31T11:17:09;98578.60;;;24.90
67822;BMP180;54434;50.096;20.082;2023-07-31T11:19:43;98570.00;;;24.90
67822;BMP180;54434;50.096;20.082;2023-07-31T11:22:20;98570.40;;;24.90
67822;BMP180;54434;50.096;20.082;2023-07-31T11:24:57;98565.20;;;24.92
67822;BMP180;54434;50.096;20.082;2023-07-31T11:27:41;98568.60;;;25.00
67822;BMP180;54434;50.096;20.082;2023-07-31T11:30:21;98573.40;;;25.10
67822;BMP180;54434;50.096;20.082;2023-07-31T11:33:00;98569.80;;;24.92
67822;BMP180;54434;50.096;20.082;2023-07-31T11:35:43;98568.40;;;24.90
67822;BMP180;54434;50.096;20.082;2023-07-31T11:38:29;98572.60;;;24.70
67822;BMP180;54434;50.096;20.082;2023-07-31T11:41:06;98567.80;;;24.50
67822;BMP180;54434;50.096;20.082;2023-07-31T11:43:43;98569.60;;;24.40
67822;BMP180;54434;50.096;20.082;2023-07-31T11:46:19;98569.80;;;24.40
67822;BMP180;54434;50.096;20.082;2023-07-31T11:49:02;98572.20;;;24.30
67822;BMP180;54434;50.096;20.082;2023-07-31T11:51:38;98571.00;;;24.20
67822;BMP180;54434;50.096;20.082;2023-07-31T11:54:15;98565.00;;;24.20
67822;BMP180;54434;50.096;20.082;2023-07-31T11:56:52;98567.20;;;24.30
67822;BMP180;54434;50.096;20.082;2023-07-31T11:59:29;98554.00;;;24.42
67822;BMP180;54434;50.096;20.082;2023-07-31T12:02:07;98553.60;;;24.60
67822;BMP180;54434;50.096;20.082;2023-07-31T12:04:43;98553.60;;;24.70
67822;BMP180;54434;50.096;20.082;2023-07-31T12:07:21;98546.40;;;24.70
67822;BMP180;54434;50.096;20.082;2023-07-31T12:09:58;98545.80;;;24.70
67822;BMP180;54434;50.096;20.082;2023-07-31T12:12:35;98552.40;;;24.68
67822;BMP180;54434;50.096;20.082;2023-07-31T12:15:19;98549.00;;;24.60
67822;BMP180;54434;50.096;20.082;2023-07-31T12:17:56;98549.80;;;24.48
67822;BMP180;54434;50.096;20.082;2023-07-31T12:20:35;98549.20;;;24.30
67822;BMP180;54434;50.096;20.082;2023-07-31T12:23:16;98537.80;;;24.18
67822;BMP180;54434;50.096;20.082;2023-07-31T12:26:01;98541.80;;;24.10
67822;BMP180;54434;50.096;20.082;2023-07-31T12:28:42;98538.40;;;24.10
67822;BMP180;54434;50.096;20.082;2023-07-31T12:31:22;98533.20;;;24.20
67822;BMP180;54434;50.096;20.082;2023-07-31T12:33:58;98530.40;;;24.30
67822;BMP180;54434;50.096;20.082;2023-07-31T12:36:36;98527.80;;;24.50
67822;BMP180;54434;50.096;20.082;2023-07-31T12:39:15;98521.20;;;24.62
67822;BMP180;54434;50.096;20.082;2023-07-31T12:41:52;98520.60;;;24.70
67822;BMP180;54434;50.096;20.082;2023-07-31T12:44:28;98516.60;;;24.70
67822;BMP180;54434;50.096;20.082;2023-07-31T12:47:07;98520.40;;;24.72
67822;BMP180;54434;50.096;20.082;2023-07-31T12:49:44;98519.80;;;24.70
67822;BMP180;54434;50.096;20.082;2023-07-31T12:52:21;98518.40;;;24.70
67822;BMP180;54434;50.096;20.082;2023-07-31T12:54:57;98517.60;;;24.70
67822;BMP180;54434;50.096;20.082;2023-07-31T12:57:33;98514.60;;;24.70
67822;BMP180;54434;50.096;20.082;2023-07-31T13:00:16;98508.80;;;24.68
67822;BMP180;54434;50.096;20.082;2023-07-31T13:02:52;98507.00;;;24.60
67822;BMP180;54434;50.096;20.082;2023-07-31T13:05:30;98508.00;;;24.60
67822;BMP180;54434;50.096;20.082;2023-07-31T13:08:07;98495.80;;;24.64
67822;BMP180;54434;50.096;20.082;2023-07-31T13:10:43;98498.00;;;24.70
67822;BMP180;54434;50.096;20.082;2023-07-31T13:13:20;98494.00;;;24.70
67822;BMP180;54434;50.096;20.082;2023-07-31T13:15:57;98494.60;;;24.70
67822;BMP180;54434;50.096;20.082;2023-07-31T13:18:34;98484.00;;;24.70
67822;BMP180;54434;50.096;20.082;2023-07-31T13:21:11;98484.00;;;24.70
67822;BMP180;54434;50.096;20.082;2023-07-31T13:23:48;98488.00;;;24.60
67822;BMP180;54434;50.096;20.082;2023-07-31T13:26:24;98481.60;;;24.62
67822;BMP180;54434;50.096;20.082;2023-07-31T13:29:01;98485.40;;;24.60
67822;BMP180;54434;50.096;20.082;2023-07-31T13:31:37;98484.20;;;24.66
67822;BMP180;54434;50.096;20.082;2023-07-31T13:34:14;98483.40;;;24.60
67822;BMP180;54434;50.096;20.082;2023-07-31T13:36:50;98486.20;;;24.60
67822;BMP180;54434;50.096;20.082;2023-07-31T13:39:27;98477.00;;;24.60
67822;BMP180;54434;50.096;20.082;2023-07-31T13:42:04;98478.20;;;24.60
67822;BMP180;54434;50.096;20.082;2023-07-31T13:44:41;98472.20;;;24.50
67822;BMP180;54434;50.096;20.082;2023-07-31T13:47:18;98472.60;;;24.50
67822;BMP180;54434;50.096;20.082;2023-07-31T13:49:55;98476.40;;;24.50
67822;BMP180;54434;50.096;20.082;2023-07-31T13:52:31;98475.60;;;24.52
67822;BMP180;54434;50.096;20.082;2023-07-31T13:55:10;98474.80;;;24.60
67822;BMP180;54434;50.096;20.082;2023-07-31T13:57:46;98471.20;;;24.60
67822;BMP180;54434;50.096;20.082;2023-07-31T14:00:23;98465.80;;;24.70
67822;BMP180;54434;50.096;20.082;2023-07-31T14:03:00;98469.20;;;24.70
67822;BMP180;54434;50.096;20.082;2023-07-31T14:05:37;98466.20;;;24.70
67822;BMP180;54434;50.096;20.082;2023-07-31T14:08:14;98465.40;;;24.78
67822;BMP180;54434;50.096;20.082;2023-07-31T14:10:50;98461.60;;;24.70
67822;BMP180;54434;50.096;20.082;2023-07-31T14:13:26;98454.80;;;24.70
67822;BMP180;54434;50.096;20.082;2023-07-31T14:16:04;98462.60;;;24.70
67822;BMP180;54434;50.096;20.082;2023-07-31T14:18:40;98460.20;;;24.70
67822;BMP180;54434;50.096;20.082;2023-07-31T14:21:17;98456.80;;;24.70
67822;BMP180;54434;50.096;20.082;2023-07-31T14:23:54;98451.60;;;24.74
67822;BMP180;54434;50.096;20.082;2023-07-31T14:26:31;98451.80;;;24.80
67822;BMP180;54434;50.096;20.082;2023-07-31T14:29:07;98445.80;;;24.80
67822;BMP180;54434;50.096;20.082;2023-07-31T14:31:43;98441.80;;;24.80
67822;BMP180;54434;50.096;20.082;2023-07-31T14:34:20;98442.00;;;24.78
67822;BMP180;54434;50.096;20.082;2023-07-31T14:36:56;98447.00;;;24.70
67822;BMP180;54434;50.096;20.082;2023-07-31T14:39:32;98445.60;;;24.60
67822;BMP180;54434;50.096;20.082;2023-07-31T14:42:10;98439.40;;;24.56
67822;BMP180;54434;50.096;20.082;2023-07-31T14:44:46;98433.80;;;24.50
67822;BMP180;54434;50.096;20.082;2023-07-31T14:47:23;98431.80;;;24.60
67822;BMP180;54434;50.096;20.082;2023-07-31T14:49:59;98428.60;;;24.64
67822;BMP180;54434;50.096;20.082;2023-07-31T14:52:36;98429.80;;;24.70
67822;BMP180;54434;50.096;20.082;2023-07-31T14:55:13;98429.20;;;24.72
67822;BMP180;54434;50.096;20.082;2023-07-31T14:57:49;98428.80;;;24.80